Ballinger, Texas
Current Conditions -  °F | °C
As of 12:35 AM on Wednesday 26 Nov 2014 (Local Time) from KCOM Reporting Station
Clear Clear  
Wind Chill: 41°   Ceiling: Unl
Heat Index: 45°   Visibility: 10mi
Dew Point: 27°   Wind: 8mph
Humidity: 49%   Direction: 220°SW
Pressure: 30.12"   Gusts: NA
Location:  31.74°N, 99.95°W
Report Text: KCOM 260635Z AUTO 22007KT 10SM CLR 07/M03 A3012 RMK AO2 T00741026
Loading
Personal Weather Stations






























Interactive Weather Map New forecast layout! Learn more

10-Day Weather Forecast

Advertisements
Track Severe Weather on mobile